createdAt,value
2023-03-31T11:45:01.171Z,64.61
2023-03-31T11:46:01.232Z,62.36
2023-03-31T11:47:01.311Z,63.49
2023-03-31T11:48:01.322Z,63.33
2023-03-31T11:49:34.704Z,63.00
2023-03-31T11:50:01.070Z,62.20
2023-03-31T11:51:01.077Z,62.84
2023-03-31T11:52:01.233Z,64.61
2023-03-31T11:53:01.518Z,65.26
2023-03-31T11:54:01.065Z,62.04
2023-03-31T11:58:00.647Z,62.20
2023-03-31T11:59:00.656Z,62.04
2023-03-31T12:00:00.659Z,65.74
2023-03-31T12:01:02.760Z,63.16
2023-03-31T12:02:01.748Z,69.45
2023-03-31T12:03:00.758Z,65.26
2023-03-31T12:04:02.030Z,65.74
2023-03-31T12:05:01.064Z,63.65
2023-03-31T12:06:00.722Z,62.20
2023-03-31T12:07:02.357Z,63.81
2023-03-31T12:08:00.653Z,65.10
2023-03-31T12:09:00.573Z,68.16
2023-03-31T12:10:01.013Z,65.74
2023-03-31T12:11:00.784Z,66.06
2023-03-31T12:12:35.589Z,66.06
2023-03-31T12:16:56.645Z,70.90
2023-03-31T12:17:56.374Z,66.06
2023-03-31T12:18:56.775Z,63.97
2023-03-31T12:19:56.305Z,63.97
2023-03-31T12:20:56.299Z,63.00
2023-03-31T12:21:56.788Z,65.74
2023-03-31T12:22:56.179Z,63.97
2023-03-31T12:23:56.300Z,65.26
2023-03-31T12:24:56.319Z,65.42
2023-03-31T12:25:56.413Z,64.29
2023-03-31T12:33:04.664Z,67.68
2023-03-31T12:34:04.288Z,66.06
2023-03-31T12:38:16.118Z,66.55
2023-03-31T12:50:01.579Z,65.26
2023-03-31T12:51:01.452Z,65.26
2023-03-31T12:52:01.308Z,64.94
2023-03-31T12:53:01.675Z,65.58
2023-03-31T13:23:17.874Z,70.58
2023-03-31T13:24:17.697Z,72.67
2023-03-31T13:25:18.174Z,69.77
2023-03-31T13:26:18.003Z,66.39
2023-03-31T13:27:18.096Z,64.45
2023-03-31T13:28:17.435Z,66.06
2023-03-31T13:29:18.613Z,66.87
2023-03-31T13:30:18.036Z,64.29
2023-03-31T13:31:18.148Z,61.07
2023-03-31T13:32:17.847Z,64.13
2023-03-31T13:33:18.562Z,66.06
2023-03-31T13:34:17.861Z,63.81
2023-03-31T13:35:17.639Z,63.97
2023-03-31T13:36:18.331Z,66.06
2023-03-31T13:37:18.012Z,65.74
2023-03-31T13:38:18.577Z,62.36
2023-03-31T13:39:18.077Z,64.61
2023-03-31T13:40:18.258Z,63.81
2023-03-31T13:41:18.092Z,63.16
2023-03-31T13:42:18.122Z,67.51
2023-03-31T13:43:18.131Z,63.00
2023-03-31T13:44:18.559Z,67.03
2023-03-31T13:45:17.866Z,65.42
2023-03-31T14:37:45.707Z,63.33
2023-03-31T14:38:45.855Z,65.10
2023-03-31T14:39:45.534Z,65.58
2023-03-31T14:40:46.169Z,66.06
2023-03-31T14:41:46.274Z,65.58
2023-03-31T14:42:46.181Z,68.64
2023-03-31T14:43:46.650Z,66.23
2023-03-31T14:44:47.850Z,65.10
2023-03-31T15:32:44.531Z,62.84
2023-03-31T15:33:44.344Z,62.04
2023-03-31T15:34:43.863Z,65.10
2023-03-31T15:35:43.757Z,66.71
2023-03-31T15:36:44.091Z,63.49
2023-03-31T15:37:43.889Z,62.52
2023-03-31T15:38:44.010Z,62.68
2023-03-31T15:39:44.238Z,62.04
2023-03-31T15:40:44.291Z,61.87
2023-03-31T15:41:44.858Z,63.65
2023-03-31T15:42:54.996Z,65.74
2023-03-31T15:48:08.280Z,64.13
2023-03-31T15:49:09.631Z,62.36
2023-03-31T15:50:08.450Z,63.65
2023-03-31T15:51:09.122Z,64.29
2023-03-31T15:52:08.806Z,64.94
2023-03-31T15:53:09.630Z,65.90
2023-03-31T15:54:08.996Z,66.06
2023-03-31T15:55:08.811Z,65.90
2023-03-31T15:56:08.995Z,65.10
2023-03-31T15:57:08.910Z,68.48
2023-03-31T15:58:09.135Z,69.13
2023-03-31T15:59:08.504Z,68.64
2023-03-31T16:00:08.821Z,66.06
2023-03-31T16:01:08.672Z,66.55
2023-03-31T16:02:08.565Z,68.32
2023-03-31T16:03:08.265Z,72.51
2023-03-31T16:04:08.685Z,66.55
2023-03-31T16:05:10.932Z,63.97
2023-03-31T16:06:10.210Z,63.81
2023-03-31T16:07:08.138Z,65.10
2023-03-31T16:08:08.064Z,64.61
2023-03-31T16:09:08.282Z,63.00
2023-03-31T16:10:08.648Z,61.71
2023-03-31T16:11:08.741Z,60.59
2023-03-31T16:12:08.897Z,66.87
2023-03-31T16:13:08.557Z,61.71
2023-03-31T16:14:07.962Z,64.45
2023-03-31T16:15:08.093Z,63.16
2023-03-31T16:16:08.138Z,61.39
2023-03-31T16:17:08.161Z,61.39
2023-03-31T16:18:08.205Z,62.52
2023-03-31T16:19:07.803Z,63.00
2023-03-31T16:20:07.836Z,61.23
2023-03-31T16:21:07.753Z,61.39
2023-03-31T16:22:07.735Z,62.52
2023-03-31T16:23:07.734Z,61.71
2023-03-31T16:24:08.099Z,63.81
2023-03-31T16:25:08.022Z,62.84
2023-03-31T16:26:07.910Z,62.36
2023-03-31T16:27:08.527Z,63.16
2023-03-31T16:28:08.030Z,60.42
2023-03-31T16:29:08.281Z,62.52
2023-03-31T16:30:08.653Z,61.87
2023-03-31T16:31:08.625Z,61.71
2023-03-31T16:32:08.465Z,67.51
2023-03-31T16:33:08.823Z,67.51
2023-03-31T16:34:08.385Z,66.39
2023-03-31T16:35:08.187Z,65.90
2023-03-31T16:36:08.645Z,67.03
2023-03-31T16:37:08.477Z,66.87
2023-03-31T16:38:08.368Z,68.80
2023-03-31T16:39:08.356Z,69.13
2023-03-31T16:40:08.286Z,68.16
2023-03-31T16:41:08.301Z,67.51
2023-03-31T16:42:09.379Z,67.19
2023-03-31T16:43:08.390Z,67.03
2023-03-31T16:44:08.362Z,67.35
2023-03-31T16:45:14.345Z,69.61
2023-03-31T16:46:10.602Z,71.38
2023-03-31T16:47:08.392Z,68.96
2023-03-31T16:48:16.331Z,67.68
2023-03-31T16:49:09.932Z,63.16
2023-03-31T16:50:08.173Z,63.97
2023-03-31T16:51:08.234Z,65.10
2023-03-31T16:52:08.898Z,65.42
2023-03-31T16:53:08.375Z,67.51
2023-03-31T16:54:08.210Z,64.94
2023-03-31T16:55:08.233Z,67.35
2023-03-31T16:56:08.033Z,66.39
2023-03-31T16:57:08.589Z,66.71
2023-03-31T16:58:08.149Z,66.87
2023-03-31T16:59:08.324Z,65.74
2023-03-31T17:00:08.367Z,66.23
2023-03-31T17:01:08.045Z,65.42
2023-03-31T17:02:08.008Z,65.74
2023-03-31T17:03:08.772Z,67.03
2023-03-31T17:04:07.961Z,69.13
2023-03-31T17:05:13.121Z,67.03
2023-03-31T17:06:09.858Z,67.51
2023-03-31T17:07:08.063Z,67.84
2023-03-31T17:08:08.445Z,69.13
2023-03-31T17:09:08.169Z,64.78
2023-03-31T17:10:08.180Z,66.06
2023-03-31T17:11:08.145Z,63.81
2023-03-31T17:12:08.264Z,64.13
2023-03-31T17:13:08.470Z,62.52
2023-03-31T17:14:08.065Z,63.65
2023-03-31T17:15:08.026Z,64.29
2023-03-31T17:17:08.743Z,67.68
2023-03-31T17:18:07.844Z,66.06
2023-03-31T17:19:08.075Z,65.58
2023-03-31T17:20:07.743Z,65.74
2023-03-31T17:21:08.009Z,67.51
2023-03-31T17:22:08.023Z,72.83
2023-03-31T17:23:08.009Z,70.74
2023-03-31T17:24:08.432Z,65.42
2023-03-31T17:25:08.119Z,65.58
2023-03-31T17:26:08.362Z,66.23
2023-03-31T17:27:08.843Z,66.06
2023-03-31T17:28:08.387Z,65.42
2023-03-31T17:29:08.260Z,65.10
2023-03-31T17:30:08.341Z,63.97
2023-03-31T17:31:21.250Z,65.74
2023-03-31T17:32:08.954Z,66.23
2023-03-31T17:33:08.423Z,60.42
2023-03-31T17:34:08.009Z,65.42
2023-03-31T17:35:08.433Z,63.16
2023-03-31T17:36:08.427Z,61.39
2023-03-31T17:37:08.420Z,65.26
2023-03-31T17:38:08.067Z,62.20
2023-03-31T17:39:08.387Z,63.81
2023-03-31T17:40:07.997Z,61.55
2023-03-31T17:45:03.801Z,60.26
2023-03-31T17:46:03.595Z,60.91
2023-03-31T17:47:03.473Z,61.71
2023-03-31T17:48:03.338Z,59.30
2023-03-31T17:49:38.693Z,60.75
2023-03-31T17:50:03.809Z,57.36
2023-03-31T17:51:05.569Z,60.10
2023-03-31T17:52:04.332Z,60.26
2023-03-31T17:53:03.723Z,61.23
2023-03-31T17:54:03.669Z,58.01
2023-03-31T17:55:04.021Z,63.16
2023-03-31T17:56:03.896Z,60.75
2023-03-31T17:57:03.775Z,63.65
2023-03-31T17:58:03.918Z,62.36
2023-03-31T17:59:03.853Z,60.91
2023-03-31T18:00:05.031Z,58.65
2023-03-31T18:01:03.745Z,60.75
2023-03-31T18:02:04.489Z,61.71
2023-03-31T18:03:03.747Z,60.42
2023-03-31T18:04:03.461Z,62.20
2023-03-31T18:05:03.722Z,62.20
2023-03-31T18:06:03.564Z,61.23
2023-03-31T18:07:03.751Z,57.04
2023-03-31T18:08:04.092Z,62.36
2023-03-31T18:09:03.701Z,64.94
2023-03-31T18:10:03.497Z,63.97
2023-03-31T18:11:03.666Z,61.87
2023-03-31T18:15:04.642Z,61.23
2023-03-31T18:16:03.673Z,60.91
2023-03-31T18:20:19.830Z,63.97
2023-03-31T18:21:20.011Z,61.39
2023-03-31T18:22:19.581Z,62.52
2023-03-31T18:23:20.198Z,63.00
2023-03-31T18:24:19.919Z,59.30
2023-03-31T18:25:20.534Z,60.75
2023-03-31T18:26:21.144Z,59.14
2023-03-31T18:27:19.847Z,61.23
2023-03-31T18:28:20.363Z,58.33
2023-03-31T18:42:14.715Z,58.97
2023-03-31T18:43:16.279Z,60.59
2023-03-31T18:49:46.733Z,58.17
2023-03-31T19:01:29.220Z,57.04
2023-03-31T19:09:13.453Z,57.36
2023-03-31T19:10:13.392Z,59.94
2023-03-31T19:11:14.680Z,59.94
